sensor_id;sensor_type;location;lat;lon;timestamp;temperature;humidity
1049;DHT22;513;51.444;7.196;2023-01-08T00:00:50;9.70;99.90
1049;DHT22;513;51.444;7.196;2023-01-08T00:03:16;9.80;99.90
1049;DHT22;513;51.444;7.196;2023-01-08T00:05:43;9.70;99.90
1049;DHT22;513;51.444;7.196;2023-01-08T00:08:09;9.70;99.90
1049;DHT22;513;51.444;7.196;2023-01-08T00:10:36;9.70;99.90
1049;DHT22;513;51.444;7.196;2023-01-08T00:13:03;9.70;99.90
1049;DHT22;513;51.444;7.196;2023-01-08T00:15:32;9.70;99.90
1049;DHT22;513;51.444;7.196;2023-01-08T00:17:59;9.70;99.90
1049;DHT22;513;51.444;7.196;2023-01-08T00:20:26;9.60;99.90
1049;DHT22;513;51.444;7.196;2023-01-08T00:22:53;9.60;99.90
1049;DHT22;513;51.444;7.196;2023-01-08T00:25:19;9.60;99.90
1049;DHT22;513;51.444;7.196;2023-01-08T00:27:46;9.60;99.90
1049;DHT22;513;51.444;7.196;2023-01-08T00:30:12;9.60;99.90
1049;DHT22;513;51.444;7.196;2023-01-08T00:32:40;9.60;99.90
1049;DHT22;513;51.444;7.196;2023-01-08T00:35:07;9.50;99.90
1049;DHT22;513;51.444;7.196;2023-01-08T00:37:33;9.60;99.90
1049;DHT22;513;51.444;7.196;2023-01-08T00:40:00;9.50;99.90
1049;DHT22;513;51.444;7.196;2023-01-08T00:42:26;9.50;99.90
1049;DHT22;513;51.444;7.196;2023-01-08T00:44:53;9.50;99.90
1049;DHT22;513;51.444;7.196;2023-01-08T00:47:20;9.50;99.90
1049;DHT22;513;51.444;7.196;2023-01-08T00:49:47;9.50;99.90
1049;DHT22;513;51.444;7.196;2023-01-08T00:52:14;9.60;99.90
1049;DHT22;513;51.444;7.196;2023-01-08T00:54:41;9.60;99.90
1049;DHT22;513;51.444;7.196;2023-01-08T00:57:07;9.60;99.90
1049;DHT22;513;51.444;7.196;2023-01-08T00:59:34;9.60;99.90
1049;DHT22;513;51.444;7.196;2023-01-08T01:02:00;9.60;99.90
1049;DHT22;513;51.444;7.196;2023-01-08T01:04:27;9.60;99.90
1049;DHT22;513;51.444;7.196;2023-01-08T01:06:55;9.60;99.90
1049;DHT22;513;51.444;7.196;2023-01-08T01:09:21;9.60;99.90
1049;DHT22;513;51.444;7.196;2023-01-08T01:11:48;9.60;99.90
1049;DHT22;513;51.444;7.196;2023-01-08T01:14:15;9.60;99.90
1049;DHT22;513;51.444;7.196;2023-01-08T01:16:41;9.60;99.90
1049;DHT22;513;51.444;7.196;2023-01-08T01:19:08;9.60;99.90
1049;DHT22;513;51.444;7.196;2023-01-08T01:21:35;9.60;99.90
1049;DHT22;513;51.444;7.196;2023-01-08T01:24:03;9.60;99.90
1049;DHT22;513;51.444;7.196;2023-01-08T01:26:30;9.60;99.90
1049;DHT22;513;51.444;7.196;2023-01-08T01:28:58;9.60;99.90
1049;DHT22;513;51.444;7.196;2023-01-08T01:31:25;9.60;99.90
1049;DHT22;513;51.444;7.196;2023-01-08T01:33:52;9.60;99.90
1049;DHT22;513;51.444;7.196;2023-01-08T01:36:19;9.60;99.90
1049;DHT22;513;51.444;7.196;2023-01-08T01:38:48;9.60;99.90
1049;DHT22;513;51.444;7.196;2023-01-08T01:41:20;9.60;99.90
1049;DHT22;513;51.444;7.196;2023-01-08T01:43:48;9.60;99.90
1049;DHT22;513;51.444;7.196;2023-01-08T01:46:17;9.60;99.90
1049;DHT22;513;51.444;7.196;2023-01-08T01:48:45;9.50;99.90
1049;DHT22;513;51.444;7.196;2023-01-08T01:51:13;9.60;99.90
1049;DHT22;513;51.444;7.196;2023-01-08T01:53:39;9.60;99.90
1049;DHT22;513;51.444;7.196;2023-01-08T01:56:07;9.60;99.90
1049;DHT22;513;51.444;7.196;2023-01-08T01:58:35;9.60;99.90
1049;DHT22;513;51.444;7.196;2023-01-08T02:01:02;9.60;99.90
1049;DHT22;513;51.444;7.196;2023-01-08T02:03:30;9.60;99.90
1049;DHT22;513;51.444;7.196;2023-01-08T02:05:59;9.60;99.90
1049;DHT22;513;51.444;7.196;2023-01-08T02:08:28;9.70;99.90
1049;DHT22;513;51.444;7.196;2023-01-08T02:10:57;9.70;99.90
1049;DHT22;513;51.444;7.196;2023-01-08T02:13:30;9.70;99.90
1049;DHT22;513;51.444;7.196;2023-01-08T02:16:03;9.70;99.90
1049;DHT22;513;51.444;7.196;2023-01-08T02:18:32;9.70;99.90
1049;DHT22;513;51.444;7.196;2023-01-08T02:21:02;9.60;99.90
1049;DHT22;513;51.444;7.196;2023-01-08T02:23:33;9.60;99.90
1049;DHT22;513;51.444;7.196;2023-01-08T02:26:13;9.60;99.90
1049;DHT22;513;51.444;7.196;2023-01-08T02:28:41;9.60;99.90
1049;DHT22;513;51.444;7.196;2023-01-08T02:31:10;9.60;99.90
1049;DHT22;513;51.444;7.196;2023-01-08T02:33:37;9.50;99.90
1049;DHT22;513;51.444;7.196;2023-01-08T02:36:14;9.50;99.90
1049;DHT22;513;51.444;7.196;2023-01-08T02:38:44;9.50;99.90
1049;DHT22;513;51.444;7.196;2023-01-08T02:41:14;9.50;99.90
1049;DHT22;513;51.444;7.196;2023-01-08T02:43:43;9.50;99.90
1049;DHT22;513;51.444;7.196;2023-01-08T02:46:12;9.50;99.90
1049;DHT22;513;51.444;7.196;2023-01-08T02:48:40;9.50;99.90
1049;DHT22;513;51.444;7.196;2023-01-08T02:51:09;9.40;99.90
1049;DHT22;513;51.444;7.196;2023-01-08T02:53:38;9.40;99.90
1049;DHT22;513;51.444;7.196;2023-01-08T02:56:06;9.40;99.90
1049;DHT22;513;51.444;7.196;2023-01-08T02:58:35;9.40;99.90
1049;DHT22;513;51.444;7.196;2023-01-08T03:01:03;9.40;99.90
1049;DHT22;513;51.444;7.196;2023-01-08T03:03:31;9.40;99.90
1049;DHT22;513;51.444;7.196;2023-01-08T03:06:00;9.30;99.90
1049;DHT22;513;51.444;7.196;2023-01-08T03:08:28;9.30;99.90
1049;DHT22;513;51.444;7.196;2023-01-08T03:10:57;9.30;99.90
1049;DHT22;513;51.444;7.196;2023-01-08T03:13:26;9.30;99.90
1049;DHT22;513;51.444;7.196;2023-01-08T03:15:58;9.30;99.90
1049;DHT22;513;51.444;7.196;2023-01-08T03:18:29;9.40;99.90
1049;DHT22;513;51.444;7.196;2023-01-08T03:20:58;9.30;99.90
1049;DHT22;513;51.444;7.196;2023-01-08T03:23:25;9.30;99.90
1049;DHT22;513;51.444;7.196;2023-01-08T03:25:53;9.30;99.90
1049;DHT22;513;51.444;7.196;2023-01-08T03:28:20;9.30;99.90
1049;DHT22;513;51.444;7.196;2023-01-08T03:30:47;9.30;99.90
1049;DHT22;513;51.444;7.196;2023-01-08T03:33:16;9.30;99.90
1049;DHT22;513;51.444;7.196;2023-01-08T03:35:43;9.30;99.90
1049;DHT22;513;51.444;7.196;2023-01-08T03:38:12;9.30;99.90
1049;DHT22;513;51.444;7.196;2023-01-08T03:40:40;9.30;99.90
1049;DHT22;513;51.444;7.196;2023-01-08T03:43:08;9.30;99.90
1049;DHT22;513;51.444;7.196;2023-01-08T03:45:35;9.30;99.90
1049;DHT22;513;51.444;7.196;2023-01-08T03:48:02;9.20;99.90
1049;DHT22;513;51.444;7.196;2023-01-08T03:50:31;9.20;99.90
1049;DHT22;513;51.444;7.196;2023-01-08T03:52:57;9.20;99.90
1049;DHT22;513;51.444;7.196;2023-01-08T03:55:24;9.20;99.90
1049;DHT22;513;51.444;7.196;2023-01-08T03:57:50;9.20;99.90
1049;DHT22;513;51.444;7.196;2023-01-08T04:00:17;9.20;99.90
1049;DHT22;513;51.444;7.196;2023-01-08T04:02:44;9.20;99.90
1049;DHT22;513;51.444;7.196;2023-01-08T04:05:10;9.20;99.90
1049;DHT22;513;51.444;7.196;2023-01-08T04:07:38;9.20;99.90
1049;DHT22;513;51.444;7.196;2023-01-08T04:10:05;9.20;99.90
1049;DHT22;513;51.444;7.196;2023-01-08T04:12:31;9.20;99.90
1049;DHT22;513;51.444;7.196;2023-01-08T04:14:58;9.20;99.90
1049;DHT22;513;51.444;7.196;2023-01-08T04:17:24;9.20;99.90
1049;DHT22;513;51.444;7.196;2023-01-08T04:19:51;9.20;99.90
1049;DHT22;513;51.444;7.196;2023-01-08T04:22:18;9.20;99.90
1049;DHT22;513;51.444;7.196;2023-01-08T04:24:45;9.20;99.90
1049;DHT22;513;51.444;7.196;2023-01-08T04:27:12;9.20;99.90
1049;DHT22;513;51.444;7.196;2023-01-08T04:29:38;9.20;99.90
1049;DHT22;513;51.444;7.196;2023-01-08T04:32:05;9.20;99.90
1049;DHT22;513;51.444;7.196;2023-01-08T04:34:31;9.20;99.90
1049;DHT22;513;51.444;7.196;2023-01-08T04:36:58;9.20;99.90
1049;DHT22;513;51.444;7.196;2023-01-08T04:39:25;9.30;99.90
1049;DHT22;513;51.444;7.196;2023-01-08T04:41:52;9.30;99.90
1049;DHT22;513;51.444;7.196;2023-01-08T04:44:19;9.20;99.90
1049;DHT22;513;51.444;7.196;2023-01-08T04:46:45;9.30;99.90
1049;DHT22;513;51.444;7.196;2023-01-08T04:49:12;9.20;99.90
1049;DHT22;513;51.444;7.196;2023-01-08T04:51:38;9.20;99.90
1049;DHT22;513;51.444;7.196;2023-01-08T04:54:05;9.20;99.90
1049;DHT22;513;51.444;7.196;2023-01-08T04:56:31;9.20;99.90
1049;DHT22;513;51.444;7.196;2023-01-08T04:58:59;9.20;99.90
1049;DHT22;513;51.444;7.196;2023-01-08T05:01:26;9.20;99.90
1049;DHT22;513;51.444;7.196;2023-01-08T05:03:53;9.20;99.90
1049;DHT22;513;51.444;7.196;2023-01-08T05:06:20;9.10;99.90
1049;DHT22;513;51.444;7.196;2023-01-08T05:08:46;9.10;99.90
1049;DHT22;513;51.444;7.196;2023-01-08T05:11:13;9.10;99.90
1049;DHT22;513;51.444;7.196;2023-01-08T05:13:39;9.10;99.90
1049;DHT22;513;51.444;7.196;2023-01-08T05:16:07;9.00;99.90
1049;DHT22;513;51.444;7.196;2023-01-08T05:18:34;9.10;99.90
1049;DHT22;513;51.444;7.196;2023-01-08T05:21:01;9.00;99.90
1049;DHT22;513;51.444;7.196;2023-01-08T05:23:28;9.00;99.90
1049;DHT22;513;51.444;7.196;2023-01-08T05:25:55;9.00;99.90
1049;DHT22;513;51.444;7.196;2023-01-08T05:28:22;9.00;99.90
1049;DHT22;513;51.444;7.196;2023-01-08T05:30:48;9.00;99.90
1049;DHT22;513;51.444;7.196;2023-01-08T05:33:16;9.10;99.90
1049;DHT22;513;51.444;7.196;2023-01-08T05:35:42;9.10;99.90
1049;DHT22;513;51.444;7.196;2023-01-08T05:38:09;9.10;99.90
1049;DHT22;513;51.444;7.196;2023-01-08T05:40:36;9.10;99.90
1049;DHT22;513;51.444;7.196;2023-01-08T05:43:02;9.10;99.90
1049;DHT22;513;51.444;7.196;2023-01-08T05:45:29;9.10;99.90
1049;DHT22;513;51.444;7.196;2023-01-08T05:47:56;9.10;99.90
1049;DHT22;513;51.444;7.196;2023-01-08T05:50:24;9.10;99.90
1049;DHT22;513;51.444;7.196;2023-01-08T05:52:51;9.10;99.90
1049;DHT22;513;51.444;7.196;2023-01-08T05:55:18;9.20;99.90
1049;DHT22;513;51.444;7.196;2023-01-08T05:57:45;9.20;99.90
1049;DHT22;513;51.444;7.196;2023-01-08T06:00:12;9.10;99.90
1049;DHT22;513;51.444;7.196;2023-01-08T06:02:38;9.10;99.90
1049;DHT22;513;51.444;7.196;2023-01-08T06:05:05;9.10;99.90
1049;DHT22;513;51.444;7.196;2023-01-08T06:07:33;9.10;99.90
1049;DHT22;513;51.444;7.196;2023-01-08T06:09:59;9.10;99.90
1049;DHT22;513;51.444;7.196;2023-01-08T06:12:26;9.10;99.90
1049;DHT22;513;51.444;7.196;2023-01-08T06:14:52;9.10;99.90
1049;DHT22;513;51.444;7.196;2023-01-08T06:17:19;9.10;99.90
1049;DHT22;513;51.444;7.196;2023-01-08T06:19:45;9.10;99.90
1049;DHT22;513;51.444;7.196;2023-01-08T06:22:12;9.10;99.90
1049;DHT22;513;51.444;7.196;2023-01-08T06:24:40;9.20;99.90
1049;DHT22;513;51.444;7.196;2023-01-08T06:27:06;9.10;99.90
1049;DHT22;513;51.444;7.196;2023-01-08T06:29:33;9.10;99.90
1049;DHT22;513;51.444;7.196;2023-01-08T06:31:59;9.10;99.90
1049;DHT22;513;51.444;7.196;2023-01-08T06:34:26;9.10;99.90
1049;DHT22;513;51.444;7.196;2023-01-08T06:36:52;9.10;99.90
1049;DHT22;513;51.444;7.196;2023-01-08T06:39:19;9.20;99.90
1049;DHT22;513;51.444;7.196;2023-01-08T06:41:46;9.20;99.90
1049;DHT22;513;51.444;7.196;2023-01-08T06:44:13;9.20;99.90
1049;DHT22;513;51.444;7.196;2023-01-08T06:46:39;9.10;99.90
1049;DHT22;513;51.444;7.196;2023-01-08T06:49:06;9.10;99.90
1049;DHT22;513;51.444;7.196;2023-01-08T06:51:33;9.10;99.90
1049;DHT22;513;51.444;7.196;2023-01-08T06:53:59;9.10;99.90
1049;DHT22;513;51.444;7.196;2023-01-08T06:56:26;9.10;99.90
1049;DHT22;513;51.444;7.196;2023-01-08T06:58:54;9.10;99.90
1049;DHT22;513;51.444;7.196;2023-01-08T07:01:20;9.10;99.90
1049;DHT22;513;51.444;7.196;2023-01-08T07:03:48;9.10;99.90
1049;DHT22;513;51.444;7.196;2023-01-08T07:06:14;9.10;99.90
1049;DHT22;513;51.444;7.196;2023-01-08T07:08:41;9.10;99.90
1049;DHT22;513;51.444;7.196;2023-01-08T07:11:08;9.10;99.90
1049;DHT22;513;51.444;7.196;2023-01-08T07:13:34;9.10;99.90
1049;DHT22;513;51.444;7.196;2023-01-08T07:16:05;9.10;99.90
1049;DHT22;513;51.444;7.196;2023-01-08T07:18:32;9.00;99.90
1049;DHT22;513;51.444;7.196;2023-01-08T07:20:59;8.90;99.90
1049;DHT22;513;51.444;7.196;2023-01-08T07:23:25;8.70;99.90
1049;DHT22;513;51.444;7.196;2023-01-08T07:25:52;8.60;99.90
1049;DHT22;513;51.444;7.196;2023-01-08T07:28:18;8.40;99.90
1049;DHT22;513;51.444;7.196;2023-01-08T07:30:45;8.30;99.90
1049;DHT22;513;51.444;7.196;2023-01-08T07:33:12;8.20;99.90
1049;DHT22;513;51.444;7.196;2023-01-08T07:35:39;8.20;99.90
1049;DHT22;513;51.444;7.196;2023-01-08T07:38:05;8.10;99.90
1049;DHT22;513;51.444;7.196;2023-01-08T07:40:32;8.00;99.90
1049;DHT22;513;51.444;7.196;2023-01-08T07:42:59;7.90;99.90
1049;DHT22;513;51.444;7.196;2023-01-08T07:45:26;7.80;99.90
1049;DHT22;513;51.444;7.196;2023-01-08T07:47:53;7.80;99.90
1049;DHT22;513;51.444;7.196;2023-01-08T07:50:22;7.70;99.90
1049;DHT22;513;51.444;7.196;2023-01-08T07:52:49;7.70;99.90
1049;DHT22;513;51.444;7.196;2023-01-08T07:55:15;7.70;99.90
1049;DHT22;513;51.444;7.196;2023-01-08T07:57:42;7.60;99.90
1049;DHT22;513;51.444;7.196;2023-01-08T08:00:09;7.60;99.90
1049;DHT22;513;51.444;7.196;2023-01-08T08:02:35;7.60;99.90
1049;DHT22;513;51.444;7.196;2023-01-08T08:05:02;7.60;99.90
1049;DHT22;513;51.444;7.196;2023-01-08T08:07:30;7.60;99.90
1049;DHT22;513;51.444;7.196;2023-01-08T08:09:57;7.60;99.90
1049;DHT22;513;51.444;7.196;2023-01-08T08:12:23;7.60;99.90
1049;DHT22;513;51.444;7.196;2023-01-08T08:14:50;7.50;99.90
1049;DHT22;513;51.444;7.196;2023-01-08T08:17:16;7.50;99.90
1049;DHT22;513;51.444;7.196;2023-01-08T08:19:43;7.50;99.90
1049;DHT22;513;51.444;7.196;2023-01-08T08:22:09;7.50;99.90
1049;DHT22;513;51.444;7.196;2023-01-08T08:24:37;7.50;99.90
1049;DHT22;513;51.444;7.196;2023-01-08T08:27:04;7.50;99.90
1049;DHT22;513;51.444;7.196;2023-01-08T08:29:30;7.50;99.90
1049;DHT22;513;51.444;7.196;2023-01-08T08:31:57;7.50;99.90
1049;DHT22;513;51.444;7.196;2023-01-08T08:34:23;7.50;99.90
1049;DHT22;513;51.444;7.196;2023-01-08T08:36:50;7.50;99.90
1049;DHT22;513;51.444;7.196;2023-01-08T08:39:16;7.50;99.90
1049;DHT22;513;51.444;7.196;2023-01-08T08:41:44;7.50;99.90
1049;DHT22;513;51.444;7.196;2023-01-08T08:44:11;7.50;99.90
1049;DHT22;513;51.444;7.196;2023-01-08T08:46:37;7.50;99.90
1049;DHT22;513;51.444;7.196;2023-01-08T08:49:04;7.50;99.90
1049;DHT22;513;51.444;7.196;2023-01-08T08:51:30;7.50;99.90
1049;DHT22;513;51.444;7.196;2023-01-08T08:53:57;7.40;99.90
1049;DHT22;513;51.444;7.196;2023-01-08T08:56:23;7.40;99.90
1049;DHT22;513;51.444;7.196;2023-01-08T08:58:51;7.30;99.90
1049;DHT22;513;51.444;7.196;2023-01-08T09:01:18;7.30;99.90
1049;DHT22;513;51.444;7.196;2023-01-08T09:03:44;7.30;99.90
1049;DHT22;513;51.444;7.196;2023-01-08T09:06:11;7.40;99.90
1049;DHT22;513;51.444;7.196;2023-01-08T09:08:38;7.40;99.90
1049;DHT22;513;51.444;7.196;2023-01-08T09:11:04;7.40;99.90
1049;DHT22;513;51.444;7.196;2023-01-08T09:13:31;7.40;99.90
1049;DHT22;513;51.444;7.196;2023-01-08T09:15:59;7.40;99.90
1049;DHT22;513;51.444;7.196;2023-01-08T09:18:25;7.50;99.90
1049;DHT22;513;51.444;7.196;2023-01-08T09:20:52;7.50;99.90
1049;DHT22;513;51.444;7.196;2023-01-08T09:23:18;7.50;99.90
1049;DHT22;513;51.444;7.196;2023-01-08T09:25:45;7.50;99.90
1049;DHT22;513;51.444;7.196;2023-01-08T09:28:11;7.60;99.90
1049;DHT22;513;51.444;7.196;2023-01-08T09:30:38;7.70;99.90
1049;DHT22;513;51.444;7.196;2023-01-08T09:33:06;7.70;99.90
1049;DHT22;513;51.444;7.196;2023-01-08T09:35:33;7.80;99.90
1049;DHT22;513;51.444;7.196;2023-01-08T09:37:59;7.90;99.90
1049;DHT22;513;51.444;7.196;2023-01-08T09:40:27;8.00;99.90
1049;DHT22;513;51.444;7.196;2023-01-08T09:42:57;8.00;99.90
1049;DHT22;513;51.444;7.196;2023-01-08T09:45:24;8.10;99.90
1049;DHT22;513;51.444;7.196;2023-01-08T09:47:52;8.10;99.90
1049;DHT22;513;51.444;7.196;2023-01-08T09:50:20;8.10;99.90
1049;DHT22;513;51.444;7.196;2023-01-08T09:52:48;8.10;99.90
1049;DHT22;513;51.444;7.196;2023-01-08T09:55:15;8.10;99.90
1049;DHT22;513;51.444;7.196;2023-01-08T09:57:41;8.10;99.90
1049;DHT22;513;51.444;7.196;2023-01-08T10:00:11;8.00;99.90
1049;DHT22;513;51.444;7.196;2023-01-08T10:02:38;8.00;99.90
1049;DHT22;513;51.444;7.196;2023-01-08T10:05:09;8.10;99.90
1049;DHT22;513;51.444;7.196;2023-01-08T10:07:37;8.20;99.90
1049;DHT22;513;51.444;7.196;2023-01-08T10:10:05;8.20;99.90
1049;DHT22;513;51.444;7.196;2023-01-08T10:12:32;8.40;99.90
1049;DHT22;513;51.444;7.196;2023-01-08T10:14:59;8.50;99.90
1049;DHT22;513;51.444;7.196;2023-01-08T10:17:27;8.70;99.90
1049;DHT22;513;51.444;7.196;2023-01-08T10:19:56;8.90;99.90
1049;DHT22;513;51.444;7.196;2023-01-08T10:22:23;9.00;99.90
1049;DHT22;513;51.444;7.196;2023-01-08T10:24:51;9.20;99.90
1049;DHT22;513;51.444;7.196;2023-01-08T10:27:18;9.30;99.90
1049;DHT22;513;51.444;7.196;2023-01-08T10:29:46;9.40;97.50
1049;DHT22;513;51.444;7.196;2023-01-08T10:32:13;9.40;95.90
1049;DHT22;513;51.444;7.196;2023-01-08T10:34:41;9.50;95.30
1049;DHT22;513;51.444;7.196;2023-01-08T10:39:59;9.60;91.10
1049;DHT22;513;51.444;7.196;2023-01-08T10:42:31;9.60;92.00
1049;DHT22;513;51.444;7.196;2023-01-08T10:44:59;9.70;86.20
1049;DHT22;513;51.444;7.196;2023-01-08T10:47:28;9.60;75.50
1049;DHT22;513;51.444;7.196;2023-01-08T10:49:56;9.60;81.00
1049;DHT22;513;51.444;7.196;2023-01-08T10:52:24;9.60;87.60
1049;DHT22;513;51.444;7.196;2023-01-08T10:54:51;9.60;84.10
1049;DHT22;513;51.444;7.196;2023-01-08T10:57:23;9.60;76.70
1049;DHT22;513;51.444;7.196;2023-01-08T10:59:50;9.60;82.30
1049;DHT22;513;51.444;7.196;2023-01-08T11:02:20;9.70;71.80
1049;DHT22;513;51.444;7.196;2023-01-08T11:04:47;9.80;77.80
1049;DHT22;513;51.444;7.196;2023-01-08T11:07:17;9.80;77.10
1049;DHT22;513;51.444;7.196;2023-01-08T11:09:45;9.90;66.20
1049;DHT22;513;51.444;7.196;2023-01-08T11:12:27;9.90;49.80
1049;DHT22;513;51.444;7.196;2023-01-08T11:14:56;10.00;43.50
1049;DHT22;513;51.444;7.196;2023-01-08T11:17:23;10.00;45.70
1049;DHT22;513;51.444;7.196;2023-01-08T11:19:49;10.00;32.50
1049;DHT22;513;51.444;7.196;2023-01-08T11:22:17;9.90;40.10
1049;DHT22;513;51.444;7.196;2023-01-08T11:24:44;9.70;52.20
1049;DHT22;513;51.444;7.196;2023-01-08T11:27:12;9.80;76.80
1049;DHT22;513;51.444;7.196;2023-01-08T11:29:44;9.80;71.10
1049;DHT22;513;51.444;7.196;2023-01-08T11:32:23;9.90;71.60
1049;DHT22;513;51.444;7.196;2023-01-08T11:34:53;9.90;71.90
1049;DHT22;513;51.444;7.196;2023-01-08T11:37:23;10.00;72.50
1049;DHT22;513;51.444;7.196;2023-01-08T11:39:51;10.10;46.80
1049;DHT22;513;51.444;7.196;2023-01-08T11:42:19;10.20;39.60
1049;DHT22;513;51.444;7.196;2023-01-08T11:44:57;10.30;54.10
1049;DHT22;513;51.444;7.196;2023-01-08T11:47:30;10.40;38.70
1049;DHT22;513;51.444;7.196;2023-01-08T11:50:01;10.40;32.50
1049;DHT22;513;51.444;7.196;2023-01-08T11:52:33;10.30;32.80
1049;DHT22;513;51.444;7.196;2023-01-08T11:55:14;10.30;37.50
1049;DHT22;513;51.444;7.196;2023-01-08T11:57:43;10.30;33.30
1049;DHT22;513;51.444;7.196;2023-01-08T12:00:17;10.30;36.50
1049;DHT22;513;51.444;7.196;2023-01-08T12:02:49;10.30;35.90
1049;DHT22;513;51.444;7.196;2023-01-08T12:05:21;10.20;33.60
1049;DHT22;513;51.444;7.196;2023-01-08T12:07:48;10.30;39.30
1049;DHT22;513;51.444;7.196;2023-01-08T12:10:20;10.20;42.40
1049;DHT22;513;51.444;7.196;2023-01-08T12:12:51;10.30;29.50
1049;DHT22;513;51.444;7.196;2023-01-08T12:15:22;10.30;34.10
1049;DHT22;513;51.444;7.196;2023-01-08T12:18:03;10.30;38.90
1049;DHT22;513;51.444;7.196;2023-01-08T12:20:34;10.30;29.80
1049;DHT22;513;51.444;7.196;2023-01-08T12:23:04;10.30;29.40
1049;DHT22;513;51.444;7.196;2023-01-08T12:25:36;10.30;40.20
1049;DHT22;513;51.444;7.196;2023-01-08T12:28:13;10.40;28.90
1049;DHT22;513;51.444;7.196;2023-01-08T12:30:54;10.40;38.50
1049;DHT22;513;51.444;7.196;2023-01-08T12:33:31;10.40;26.80
1049;DHT22;513;51.444;7.196;2023-01-08T12:36:00;10.40;31.90
1049;DHT22;513;51.444;7.196;2023-01-08T12:38:29;10.40;29.80
1049;DHT22;513;51.444;7.196;2023-01-08T12:40:57;10.30;42.90
1049;DHT22;513;51.444;7.196;2023-01-08T12:43:26;10.30;37.90
1049;DHT22;513;51.444;7.196;2023-01-08T12:45:55;10.30;44.20
1049;DHT22;513;51.444;7.196;2023-01-08T12:48:25;10.20;68.90
1049;DHT22;513;51.444;7.196;2023-01-08T12:50:57;10.20;97.90
1049;DHT22;513;51.444;7.196;2023-01-08T12:53:26;9.90;99.90
1049;DHT22;513;51.444;7.196;2023-01-08T12:55:58;9.30;99.90
1049;DHT22;513;51.444;7.196;2023-01-08T12:58:29;9.10;99.90
1049;DHT22;513;51.444;7.196;2023-01-08T13:01:02;8.80;99.90
1049;DHT22;513;51.444;7.196;2023-01-08T13:03:31;8.60;99.90
1049;DHT22;513;51.444;7.196;2023-01-08T13:06:08;8.50;99.90
1049;DHT22;513;51.444;7.196;2023-01-08T13:08:36;8.30;99.90
1049;DHT22;513;51.444;7.196;2023-01-08T13:11:03;8.40;99.90
1049;DHT22;513;51.444;7.196;2023-01-08T13:13:30;8.40;99.90
1049;DHT22;513;51.444;7.196;2023-01-08T13:16:14;8.50;99.90
1049;DHT22;513;51.444;7.196;2023-01-08T13:18:49;8.60;99.90
1049;DHT22;513;51.444;7.196;2023-01-08T13:21:16;8.60;99.90
1049;DHT22;513;51.444;7.196;2023-01-08T13:23:43;8.70;99.90
1049;DHT22;513;51.444;7.196;2023-01-08T13:26:09;8.80;99.90
1049;DHT22;513;51.444;7.196;2023-01-08T13:28:41;8.70;99.90
1049;DHT22;513;51.444;7.196;2023-01-08T13:31:23;8.80;99.90
1049;DHT22;513;51.444;7.196;2023-01-08T13:33:51;8.80;99.90
1049;DHT22;513;51.444;7.196;2023-01-08T13:36:19;8.80;99.90
1049;DHT22;513;51.444;7.196;2023-01-08T13:38:58;8.80;99.90
1049;DHT22;513;51.444;7.196;2023-01-08T13:41:25;8.80;99.90
1049;DHT22;513;51.444;7.196;2023-01-08T13:43:54;8.90;99.90
1049;DHT22;513;51.444;7.196;2023-01-08T13:46:24;8.90;99.90
1049;DHT22;513;51.444;7.196;2023-01-08T13:48:53;8.90;99.90
1049;DHT22;513;51.444;7.196;2023-01-08T13:51:25;8.90;99.90
1049;DHT22;513;51.444;7.196;2023-01-08T13:53:53;9.00;99.90
1049;DHT22;513;51.444;7.196;2023-01-08T13:56:20;8.90;99.90
1049;DHT22;513;51.444;7.196;2023-01-08T13:58:50;8.90;99.90
1049;DHT22;513;51.444;7.196;2023-01-08T14:01:18;8.90;99.90
1049;DHT22;513;51.444;7.196;2023-01-08T14:03:46;8.90;99.90
1049;DHT22;513;51.444;7.196;2023-01-08T14:06:15;9.00;99.90
1049;DHT22;513;51.444;7.196;2023-01-08T14:08:47;9.00;99.90
1049;DHT22;513;51.444;7.196;2023-01-08T14:11:14;9.00;97.60
1049;DHT22;513;51.444;7.196;2023-01-08T14:13:41;9.00;90.30
1049;DHT22;513;51.444;7.196;2023-01-08T14:16:09;8.90;86.50
1049;DHT22;513;51.444;7.196;2023-01-08T14:18:38;9.00;90.60
1049;DHT22;513;51.444;7.196;2023-01-08T14:21:06;8.90;90.70
1049;DHT22;513;51.444;7.196;2023-01-08T14:23:35;8.90;85.60
1049;DHT22;513;51.444;7.196;2023-01-08T14:26:03;8.80;91.00
1049;DHT22;513;51.444;7.196;2023-01-08T14:28:30;8.80;96.10
1049;DHT22;513;51.444;7.196;2023-01-08T14:30:57;8.80;94.40
1049;DHT22;513;51.444;7.196;2023-01-08T14:33:25;8.70;99.90
1049;DHT22;513;51.444;7.196;2023-01-08T14:35:54;8.70;98.80
1049;DHT22;513;51.444;7.196;2023-01-08T14:38:22;8.70;99.90
1049;DHT22;513;51.444;7.196;2023-01-08T14:40:50;8.70;99.90
1049;DHT22;513;51.444;7.196;2023-01-08T14:43:23;8.60;99.90
1049;DHT22;513;51.444;7.196;2023-01-08T14:45:50;8.60;99.90
1049;DHT22;513;51.444;7.196;2023-01-08T14:48:18;8.60;99.90
1049;DHT22;513;51.444;7.196;2023-01-08T14:50:53;8.60;99.90
1049;DHT22;513;51.444;7.196;2023-01-08T14:53:26;8.50;99.90
1049;DHT22;513;51.444;7.196;2023-01-08T14:55:54;8.60;99.90
1049;DHT22;513;51.444;7.196;2023-01-08T14:58:22;8.60;99.90
1049;DHT22;513;51.444;7.196;2023-01-08T15:00:49;8.60;99.90
1049;DHT22;513;51.444;7.196;2023-01-08T15:06:01;8.60;99.90
1049;DHT22;513;51.444;7.196;2023-01-08T15:08:33;8.60;99.90
1049;DHT22;513;51.444;7.196;2023-01-08T15:11:00;8.60;99.90
1049;DHT22;513;51.444;7.196;2023-01-08T15:13:31;8.60;99.90
1049;DHT22;513;51.444;7.196;2023-01-08T15:15:58;8.60;99.90
1049;DHT22;513;51.444;7.196;2023-01-08T15:18:25;8.50;99.90
1049;DHT22;513;51.444;7.196;2023-01-08T15:20:52;8.40;99.90
1049;DHT22;513;51.444;7.196;2023-01-08T15:23:22;8.40;99.90
1049;DHT22;513;51.444;7.196;2023-01-08T15:25:51;8.40;99.90
1049;DHT22;513;51.444;7.196;2023-01-08T15:28:18;8.40;99.90
1049;DHT22;513;51.444;7.196;2023-01-08T15:30:46;8.40;99.90
1049;DHT22;513;51.444;7.196;2023-01-08T15:33:17;8.40;99.90
1049;DHT22;513;51.444;7.196;2023-01-08T15:35:46;8.40;99.90
1049;DHT22;513;51.444;7.196;2023-01-08T15:38:12;8.50;99.90
1049;DHT22;513;51.444;7.196;2023-01-08T15:40:39;8.60;99.90
1049;DHT22;513;51.444;7.196;2023-01-08T15:43:09;8.60;99.90
1049;DHT22;513;51.444;7.196;2023-01-08T15:45:35;8.60;88.40
1049;DHT22;513;51.444;7.196;2023-01-08T15:48:02;8.60;90.10
1049;DHT22;513;51.444;7.196;2023-01-08T15:50:29;8.60;87.40
1049;DHT22;513;51.444;7.196;2023-01-08T15:52:57;8.70;69.60
1049;DHT22;513;51.444;7.196;2023-01-08T15:55:25;8.60;83.80
1049;DHT22;513;51.444;7.196;2023-01-08T15:57:51;8.70;93.20
1049;DHT22;513;51.444;7.196;2023-01-08T16:00:21;8.70;87.40
1049;DHT22;513;51.444;7.196;2023-01-08T16:02:47;8.70;95.20
1049;DHT22;513;51.444;7.196;2023-01-08T16:05:15;8.70;91.50
1049;DHT22;513;51.444;7.196;2023-01-08T16:07:41;8.70;91.90
1049;DHT22;513;51.444;7.196;2023-01-08T16:10:10;8.70;95.80
1049;DHT22;513;51.444;7.196;2023-01-08T16:12:36;8.80;99.90
1049;DHT22;513;51.444;7.196;2023-01-08T16:15:03;8.80;96.80
1049;DHT22;513;51.444;7.196;2023-01-08T16:17:33;8.80;86.20
1049;DHT22;513;51.444;7.196;2023-01-08T16:20:00;8.80;94.30
1049;DHT22;513;51.444;7.196;2023-01-08T16:22:27;8.80;92.60
1049;DHT22;513;51.444;7.196;2023-01-08T16:24:53;8.80;90.40
1049;DHT22;513;51.444;7.196;2023-01-08T16:27:20;8.90;91.50
1049;DHT22;513;51.444;7.196;2023-01-08T16:29:46;8.90;63.30
1049;DHT22;513;51.444;7.196;2023-01-08T16:32:13;8.90;62.60
1049;DHT22;513;51.444;7.196;2023-01-08T16:34:41;9.00;61.90
1049;DHT22;513;51.444;7.196;2023-01-08T16:37:07;8.90;64.40
1049;DHT22;513;51.444;7.196;2023-01-08T16:39:34;8.90;78.80
1049;DHT22;513;51.444;7.196;2023-01-08T16:42:00;8.90;58.30
1049;DHT22;513;51.444;7.196;2023-01-08T16:44:27;8.90;51.30